Time;durP1;ratioP1;P1;durP2;ratioP2;P2;SDS_P1;SDS_P2;PMS_P1;PMS_P2;Temp;Humidity;BMP_temperature;BMP_pressure;BME280_temperature;BME280_humidity;BME280_pressure;Samples;Min_cycle;Max_cycle;Signal;HPM_P1;HPM_P2
2022/04/17 00:01:36;;;;;;;;;;;;;;;;;;5024525;28;19972;-77
2022/04/17 00:04:02;;;;;;;;;;;;;;;;;;5018782;28;19964;-79
2022/04/17 00:06:29;;;;;;;;;;;;;;;;;;5046429;28;20330;-79
2022/04/17 00:08:57;;;;;;;;;;;;;;;;;;5017083;28;19952;-81
2022/04/17 00:11:23;;;;;;;;;;;;;;;;;;5019806;28;20389;-79
2022/04/17 00:13:49;;;;;;;;;;;;;;;;;;5019051;28;19952;-79
2022/04/17 00:16:15;;;;;;;;;;;;;;;;;;5020060;28;20055;-80
2022/04/17 00:18:42;;;;;;;;;;;;;;;;;;5020226;28;19968;-80
2022/04/17 00:21:08;;;;;;;;;;;;;;;;;;5018206;28;19952;-80
2022/04/17 00:23:34;;;;;;;;;;;;;;;;;;5019586;28;19972;-79
2022/04/17 00:26:01;;;;;;;;;;;;;;;;;;5021438;28;20334;-80
2022/04/17 00:28:27;;;;;;;;;;;;;;;;;;5055051;28;20389;-80
2022/04/17 00:30:54;;;;;;;;;;;;;;;;;;5022307;28;20006;-79
2022/04/17 00:33:20;;;;;;;;;;;;;;;;;;5024432;28;19955;-79
2022/04/17 00:35:46;;;;;;;;;;;;;;;;;;5017114;28;19988;-80
2022/04/17 00:38:12;;;;;;;;;;;;;;;;;;5020002;28;20365;-79
2022/04/17 00:40:39;;;;;;;;;;;;;;;;;;5021552;28;19955;-79
2022/04/17 00:43:05;;;;;;;;;;;;;;;;;;5030414;28;19936;-80
2022/04/17 00:45:31;;;;;;;;;;;;;;;;;;5033437;28;19941;-80
2022/04/17 00:47:58;;;;;;;;;;;;;;;;;;5037879;28;19956;-79
2022/04/17 00:50:24;;;;;;;;;;;;;;;;;;5028099;28;20310;-81
2022/04/17 00:52:50;;;;;;;;;;;;;;;;;;5032307;28;19956;-80
2022/04/17 00:55:16;;;;;;;;;;;;;;;;;;5032688;28;19953;-80
2022/04/17 00:57:42;;;;;;;;;;;;;;;;;;5043017;28;19964;-80
2022/04/17 01:00:09;;;;;;;;;;;;;;;;;;5028229;28;20471;-80
2022/04/17 01:02:35;;;;;;;;;;;;;;;;;;5033138;28;19956;-80
2022/04/17 01:05:01;;;;;;;;;;;;;;;;;;5021173;28;19949;-80
2022/04/17 01:07:27;;;;;;;;;;;;;;;;;;5060082;28;19953;-80
2022/04/17 01:09:53;;;;;;;;;;;;;;;;;;5053647;28;19917;-80
2022/04/17 01:12:20;;;;;;;;;;;;;;;;;;5033173;28;20008;-81
2022/04/17 01:14:46;;;;;;;;;;;;;;;;;;5032065;28;19968;-81
2022/04/17 01:17:12;;;;;;;;;;;;;;;;;;5029321;28;19960;-80
2022/04/17 01:19:39;;;;;;;;;;;;;;;;;;5023673;28;19944;-80
2022/04/17 01:22:06;;;;;;;;;;;;;;;;;;5059610;28;19979;-80
2022/04/17 01:27:22;;;;;;;;;;;;;;;;;;5037559;28;19917;-81
2022/04/17 01:29:50;;;;;;;;;;;;;;;;;;5026057;28;19967;-81
2022/04/17 01:32:16;;;;;;;;;;;;;;;;;;5058751;28;20389;-81
2022/04/17 01:34:43;;;;;;;;;;;;;;;;;;5019654;28;19944;-81
2022/04/17 01:37:09;;;;;;;;;;;;;;;;;;5066563;28;19983;-81
2022/04/17 01:39:35;;;;;;;;;;;;;;;;;;5024468;28;19955;-82
2022/04/17 01:42:01;;;;;;;;;;;;;;;;;;5021512;28;20039;-80
2022/04/17 01:44:28;;;;;;;;;;;;;;;;;;5017832;28;19944;-81
2022/04/17 01:46:54;;;;;;;;;;;;;;;;;;5030851;28;19960;-80
2022/04/17 01:49:21;;;;;;;;;;;;;;;;;;5054319;28;20498;-79
2022/04/17 01:51:47;;;;;;;;;;;;;;;;;;5029599;28;19967;-79
2022/04/17 01:54:13;;;;;;;;;;;;;;;;;;5055637;28;19948;-79
2022/04/17 01:56:39;;;;;;;;;;;;;;;;;;5027637;28;19948;-79
2022/04/17 01:59:06;;;;;;;;;;;;;;;;;;5029130;28;19940;-79
2022/04/17 02:01:32;;;;;;;;;;;;;;;;;;5068202;28;19983;-79
2022/04/17 02:03:58;;;;;;;;;;;;;;;;;;5027675;28;19953;-79
2022/04/17 02:06:25;;;;;;;;;;;;;;;;;;5029989;28;19941;-79
2022/04/17 02:08:51;;;;;;;;;;;;;;;;;;5025597;28;19960;-79
2022/04/17 02:11:17;;;;;;;;;;;;;;;;;;5028266;28;20007;-79
2022/04/17 02:13:45;;;;;;;;;;;;;;;;;;5057249;28;19975;-79
2022/04/17 02:16:12;;;;;;;;;;;;;;;;;;5027169;28;20488;-79
2022/04/17 02:18:38;;;;;;;;;;;;;;;;;;5029188;28;19945;-79
2022/04/17 02:21:04;;;;;;;;;;;;;;;;;;5033189;28;20398;-79
2022/04/17 02:23:31;;;;;;;;;;;;;;;;;;5022261;28;20349;-80
2022/04/17 02:25:57;;;;;;;;;;;;;;;;;;5029816;28;19964;-79
2022/04/17 02:28:23;;;;;;;;;;;;;;;;;;5034787;28;19956;-79
2022/04/17 02:30:49;;;;;;;;;;;;;;;;;;5022294;28;19925;-79
2022/04/17 02:33:15;;;;;;;;;;;;;;;;;;5036095;28;20044;-79
2022/04/17 02:35:41;;;;;;;;;;;;;;;;;;5067504;28;19960;-79
2022/04/17 02:38:08;;;;;;;;;;;;;;;;;;5039153;28;19951;-79
2022/04/17 02:40:34;;;;;;;;;;;;;;;;;;5030261;28;20005;-79
2022/04/17 02:43:00;;;;;;;;;;;;;;;;;;5037448;28;19952;-79
2022/04/17 02:45:26;;;;;;;;;;;;;;;;;;5039885;28;19975;-79
2022/04/17 02:47:52;;;;;;;;;;;;;;;;;;5029138;28;19979;-79
2022/04/17 02:50:19;;;;;;;;;;;;;;;;;;5042190;28;19960;-79
2022/04/17 02:52:45;;;;;;;;;;;;;;;;;;5068714;28;19956;-78
2022/04/17 02:55:11;;;;;;;;;;;;;;;;;;5033935;28;19968;-79
2022/04/17 02:57:37;;;;;;;;;;;;;;;;;;5035549;28;19940;-78
2022/04/17 03:00:04;;;;;;;;;;;;;;;;;;5028671;28;19941;-79
2022/04/17 03:08:00;;;;;;;;;;;;;;;;;;5040828;28;19948;-79
2022/04/17 03:10:26;;;;;;;;;;;;;;;;;;5057856;28;19955;-79
2022/04/17 03:12:52;;;;;;;;;;;;;;;;;;5057281;28;19972;-79
2022/04/17 03:15:18;;;;;;;;;;;;;;;;;;5050725;28;20017;-80
2022/04/17 03:17:44;;;;;;;;;;;;;;;;;;5063813;28;19990;-79
2022/04/17 03:20:11;;;;;;;;;;;;;;;;;;5034915;28;19952;-79
2022/04/17 03:22:37;;;;;;;;;;;;;;;;;;5055916;28;19967;-78
2022/04/17 03:25:04;;;;;;;;;;;;;;;;;;5046039;28;19971;-79
2022/04/17 03:27:31;;;;;;;;;;;;;;;;;;5064144;28;20378;-79
2022/04/17 03:29:57;;;;;;;;;;;;;;;;;;5054380;28;19956;-80
2022/04/17 03:32:23;;;;;;;;;;;;;;;;;;5046290;28;19952;-80
2022/04/17 03:34:49;;;;;;;;;;;;;;;;;;5047935;28;19948;-80
2022/04/17 03:37:16;;;;;;;;;;;;;;;;;;5058686;28;19913;-80
2022/04/17 03:39:42;;;;;;;;;;;;;;;;;;5049525;28;19979;-79
2022/04/17 03:42:08;;;;;;;;;;;;;;;;;;5053952;28;19959;-80
2022/04/17 03:44:34;;;;;;;;;;;;;;;;;;5062496;28;19952;-80
2022/04/17 03:47:01;;;;;;;;;;;;;;;;;;5034663;28;19945;-80
2022/04/17 03:49:29;;;;;;;;;;;;;;;;;;5048350;28;20327;-80
2022/04/17 03:51:55;;;;;;;;;;;;;;;;;;5039351;28;19956;-80
2022/04/17 03:54:21;;;;;;;;;;;;;;;;;;5035653;28;19960;-80
2022/04/17 03:56:47;;;;;;;;;;;;;;;;;;5056591;28;19944;-80
2022/04/17 03:59:14;;;;;;;;;;;;;;;;;;5043539;28;19949;-80
2022/04/17 04:01:40;;;;;;;;;;;;;;;;;;5058348;28;19940;-80
2022/04/17 04:04:06;;;;;;;;;;;;;;;;;;5068893;28;19960;-79
2022/04/17 04:06:32;;;;;;;;;;;;;;;;;;5055724;28;20168;-79
2022/04/17 04:08:58;;;;;;;;;;;;;;;;;;5053994;28;19998;-79
2022/04/17 04:11:25;;;;;;;;;;;;;;;;;;5047579;28;20375;-80
2022/04/17 04:13:51;;;;;;;;;;;;;;;;;;5053716;28;19959;-79
2022/04/17 04:16:17;;;;;;;;;;;;;;;;;;5049274;28;19956;-79
2022/04/17 04:18:43;;;;;;;;;;;;;;;;;;5056688;28;19921;-78
2022/04/17 04:21:09;;;;;;;;;;;;;;;;;;5049779;28;19944;-79
2022/04/17 04:23:35;;;;;;;;;;;;;;;;;;5043328;28;19955;-79
2022/04/17 04:26:02;;;;;;;;;;;;;;;;;;5046510;28;19952;-78
2022/04/17 04:28:36;;;;;;;;;;;;;;;;;;5066933;28;20325;-80
2022/04/17 04:31:02;;;;;;;;;;;;;;;;;;5048798;28;20813;-80
2022/04/17 04:33:31;;;;;;;;;;;;;;;;;;5063895;28;19940;-81
2022/04/17 04:35:58;;;;;;;;;;;;;;;;;;5060863;28;20388;-80
2022/04/17 04:38:24;;;;;;;;;;;;;;;;;;5019013;28;19918;-80
2022/04/17 04:40:51;;;;;;;;;;;;;;;;;;5061089;28;19917;-80
2022/04/17 04:43:17;;;;;;;;;;;;;;;;;;5052081;28;19952;-80
2022/04/17 04:51:13;;;;;;;;;;;;;;;;;;5056702;28;20991;-80
2022/04/17 04:53:40;;;;;;;;;;;;;;;;;;5037614;28;19948;-79
2022/04/17 04:56:06;;;;;;;;;;;;;;;;;;5057592;28;19944;-80
2022/04/17 04:58:32;;;;;;;;;;;;;;;;;;5038302;28;20369;-80
2022/04/17 05:00:58;;;;;;;;;;;;;;;;;;5057086;28;20413;-79
2022/04/17 05:03:25;;;;;;;;;;;;;;;;;;5050037;28;19917;-79
2022/04/17 05:05:51;;;;;;;;;;;;;;;;;;5032556;28;20347;-79
2022/04/17 05:08:19;;;;;;;;;;;;;;;;;;5033629;28;19961;-79
2022/04/17 05:10:45;;;;;;;;;;;;;;;;;;5070049;28;20014;-79
2022/04/17 05:13:11;;;;;;;;;;;;;;;;;;5043274;28;20353;-78
2022/04/17 05:15:37;;;;;;;;;;;;;;;;;;5055259;28;19916;-79
2022/04/17 05:18:04;;;;;;;;;;;;;;;;;;5055158;28;19960;-79
2022/04/17 05:20:32;;;;;;;;;;;;;;;;;;5051865;28;19917;-79
2022/04/17 05:23:04;;;;;;;;;;;;;;;;;;5042169;28;20397;-79
2022/04/17 05:25:30;;;;;;;;;;;;;;;;;;5034316;28;19970;-79
2022/04/17 05:27:56;;;;;;;;;;;;;;;;;;5048510;28;20003;-79
2022/04/17 05:30:22;;;;;;;;;;;;;;;;;;5054860;28;20197;-79
2022/04/17 05:32:49;;;;;;;;;;;;;;;;;;5044400;28;20022;-79
2022/04/17 05:35:15;;;;;;;;;;;;;;;;;;5034923;28;19948;-79
2022/04/17 05:37:41;;;;;;;;;;;;;;;;;;5050008;28;19955;-79
2022/04/17 05:40:09;;;;;;;;;;;;;;;;;;5046987;28;19948;-79
2022/04/17 05:42:35;;;;;;;;;;;;;;;;;;5059542;28;19936;-79
2022/04/17 05:45:02;;;;;;;;;;;;;;;;;;5050202;28;19952;-81
2022/04/17 05:47:29;;;;;;;;;;;;;;;;;;5031137;28;19956;-79
2022/04/17 05:49:55;;;;;;;;;;;;;;;;;;5041131;28;19960;-79
2022/04/17 05:52:22;;;;;;;;;;;;;;;;;;5050080;28;20415;-78
2022/04/17 05:54:48;;;;;;;;;;;;;;;;;;5065117;28;19948;-79
2022/04/17 05:57:14;;;;;;;;;;;;;;;;;;5058734;28;20000;-79
2022/04/17 05:59:40;;;;;;;;;;;;;;;;;;5032085;28;19917;-78
2022/04/17 06:02:08;;;;;;;;;;;;;;;;;;5042422;28;19963;-78
2022/04/17 06:04:35;;;;;;;;;;;;;;;;;;5056310;28;19956;-78
2022/04/17 06:07:01;;;;;;;;;;;;;;;;;;5050345;28;19959;-78
2022/04/17 06:09:27;;;;;;;;;;;;;;;;;;5051521;28;19952;-79
2022/04/17 06:11:53;;;;;;;;;;;;;;;;;;5038751;28;19960;-78
2022/04/17 06:14:19;;;;;;;;;;;;;;;;;;5044298;28;19928;-78
2022/04/17 06:16:47;;;;;;;;;;;;;;;;;;5055008;28;20458;-78
2022/04/17 06:19:13;;;;;;;;;;;;;;;;;;5034413;28;19960;-78
2022/04/17 06:21:40;;;;;;;;;;;;;;;;;;5050299;28;20657;-78
2022/04/17 06:24:06;;;;;;;;;;;;;;;;;;5031210;28;19967;-78
2022/04/17 06:26:33;;;;;;;;;;;;;;;;;;5038948;28;19959;-78
2022/04/17 06:29:08;;;;;;;;;;;;;;;;;;5051606;28;19955;-78
2022/04/17 06:31:34;;;;;;;;;;;;;;;;;;5063580;28;19960;-79
2022/04/17 06:34:00;;;;;;;;;;;;;;;;;;5050349;28;19964;-79
2022/04/17 06:36:26;;;;;;;;;;;;;;;;;;5045380;28;19944;-78
2022/04/17 06:38:53;;;;;;;;;;;;;;;;;;5041304;28;19948;-78
2022/04/17 06:41:19;;;;;;;;;;;;;;;;;;5047205;28;19935;-79
2022/04/17 06:43:45;;;;;;;;;;;;;;;;;;5041736;28;19936;-79
2022/04/17 06:46:11;;;;;;;;;;;;;;;;;;5052876;28;19913;-80
2022/04/17 06:48:37;;;;;;;;;;;;;;;;;;5059690;28;20381;-78
2022/04/17 06:51:03;;;;;;;;;;;;;;;;;;5043347;28;19929;-79
2022/04/17 06:53:30;;;;;;;;;;;;;;;;;;5064736;28;20395;-80
2022/04/17 06:55:56;;;;;;;;;;;;;;;;;;5039028;28;19953;-79
2022/04/17 06:58:22;;;;;;;;;;;;;;;;;;5048244;28;19952;-80
2022/04/17 07:00:48;;;;;;;;;;;;;;;;;;5037401;28;19956;-78
2022/04/17 07:03:15;;;;;;;;;;;;;;;;;;5043722;28;20016;-80
2022/04/17 07:05:41;;;;;;;;;;;;;;;;;;5060049;28;19948;-79
2022/04/17 07:08:07;;;;;;;;;;;;;;;;;;5041016;28;20444;-80
2022/04/17 07:10:33;;;;;;;;;;;;;;;;;;5040496;28;20402;-80
2022/04/17 07:13:00;;;;;;;;;;;;;;;;;;5037077;28;19957;-80
2022/04/17 07:15:26;;;;;;;;;;;;;;;;;;5037361;28;20009;-80
2022/04/17 07:17:52;;;;;;;;;;;;;;;;;;5041956;28;19952;-80
2022/04/17 07:20:19;;;;;;;;;;;;;;;;;;5014409;28;19916;-77
2022/04/17 07:22:45;;;;;;;;;;;;;;;;;;5044624;28;19917;-77
2022/04/17 07:25:11;;;;;;;;;;;;;;;;;;5041011;28;19983;-79
2022/04/17 07:27:38;;;;;;;;;;;;;;;;;;5056082;28;20402;-77
2022/04/17 07:30:04;;;;;;;;;;;;;;;;;;5038102;28;19953;-78
2022/04/17 07:32:30;;;;;;;;;;;;;;;;;;5054612;28;20080;-78
2022/04/17 07:34:57;;;;;;;;;;;;;;;;;;5045109;28;19959;-79
2022/04/17 07:37:23;;;;;;;;;;;;;;;;;;5036724;28;19964;-79
2022/04/17 07:39:49;;;;;;;;;;;;;;;;;;5039558;28;20016;-77
2022/04/17 07:42:19;;;;;;;;;;;;;;;;;;5037753;28;19917;-80
2022/04/17 07:44:45;;;;;;;;;;;;;;;;;;5055024;28;19998;-80
2022/04/17 07:47:11;;;;;;;;;;;;;;;;;;5051226;28;19960;-80
2022/04/17 07:49:37;;;;;;;;;;;;;;;;;;5059778;28;20018;-80
2022/04/17 07:52:03;;;;;;;;;;;;;;;;;;5036655;28;19931;-79
2022/04/17 07:54:30;;;;;;;;;;;;;;;;;;5039085;28;19956;-80
2022/04/17 07:56:56;;;;;;;;;;;;;;;;;;5035754;28;19953;-81
2022/04/17 07:59:24;;;;;;;;;;;;;;;;;;5045312;28;20330;-80
2022/04/17 08:01:51;;;;;;;;;;;;;;;;;;5033605;28;20455;-80
2022/04/17 08:04:17;;;;;;;;;;;;;;;;;;5040240;28;19963;-81
2022/04/17 08:06:43;;;;;;;;;;;;;;;;;;5048757;28;19943;-81
2022/04/17 08:09:09;;;;;;;;;;;;;;;;;;5016367;28;19951;-81
2022/04/17 08:11:36;;;;;;;;;;;;;;;;;;5049066;28;20384;-81
2022/04/17 08:14:02;;;;;;;;;;;;;;;;;;5043875;28;19925;-81
2022/04/17 08:16:28;;;;;;;;;;;;;;;;;;5045552;28;19952;-81
2022/04/17 08:18:54;;;;;;;;;;;;;;;;;;5053388;28;19948;-80
2022/04/17 08:21:20;;;;;;;;;;;;;;;;;;5036237;28;19948;-81
2022/04/17 08:23:47;;;;;;;;;;;;;;;;;;5033191;28;19952;-80
2022/04/17 08:26:13;;;;;;;;;;;;;;;;;;5039468;28;19972;-81
2022/04/17 08:28:39;;;;;;;;;;;;;;;;;;5037456;28;19917;-79
2022/04/17 08:31:06;;;;;;;;;;;;;;;;;;5036103;28;20478;-81
2022/04/17 08:33:32;;;;;;;;;;;;;;;;;;5037176;28;19948;-81
2022/04/17 08:35:59;;;;;;;;;;;;;;;;;;5034474;28;20397;-81
2022/04/17 08:38:25;;;;;;;;;;;;;;;;;;5035557;28;20008;-81
2022/04/17 08:40:51;;;;;;;;;;;;;;;;;;5044806;28;19959;-80
2022/04/17 08:43:18;;;;;;;;;;;;;;;;;;5038485;28;20375;-81
2022/04/17 08:45:45;;;;;;;;;;;;;;;;;;5040280;28;19948;-80
2022/04/17 08:48:32;;;;;;;;;;;;;;;;;;5054605;28;20400;-81
2022/04/17 08:50:57;;;;;;;;;;;;;;;;;;5035271;28;19960;-80
2022/04/17 08:53:23;;;;;;;;;;;;;;;;;;5039680;28;19956;-79
2022/04/17 08:55:50;;;;;;;;;;;;;;;;;;5040713;28;19957;-80
2022/04/17 08:58:16;;;;;;;;;;;;;;;;;;5038204;28;19920;-81
2022/04/17 09:00:43;;;;;;;;;;;;;;;;;;5020481;28;20018;-80
2022/04/17 09:03:09;;;;;;;;;;;;;;;;;;5037053;28;19959;-78
2022/04/17 09:05:35;;;;;;;;;;;;;;;;;;5037217;28;20431;-78
2022/04/17 09:08:01;;;;;;;;;;;;;;;;;;5036386;28;19982;-78
2022/04/17 09:10:27;;;;;;;;;;;;;;;;;;5034739;28;19948;-78
2022/04/17 09:12:54;;;;;;;;;;;;;;;;;;5051946;28;19960;-79
2022/04/17 09:15:20;;;;;;;;;;;;;;;;;;5037019;28;19960;-79
2022/04/17 09:17:46;;;;;;;;;;;;;;;;;;5042436;28;20356;-80
2022/04/17 09:20:12;;;;;;;;;;;;;;;;;;5020180;28;19956;-81
2022/04/17 09:22:38;;;;;;;;;;;;;;;;;;5037327;28;20349;-81
2022/04/17 09:25:05;;;;;;;;;;;;;;;;;;5010312;28;20364;-81
2022/04/17 09:27:31;;;;;;;;;;;;;;;;;;5014859;28;20377;-80
2022/04/17 09:29:57;;;;;;;;;;;;;;;;;;5023491;28;19957;-79
2022/04/17 09:32:24;;;;;;;;;;;;;;;;;;5025605;28;19965;-79
2022/04/17 09:34:55;;;;;;;;;;;;;;;;;;5029391;28;19953;-80
2022/04/17 09:37:21;;;;;;;;;;;;;;;;;;5027488;28;20518;-81
2022/04/17 09:39:47;;;;;;;;;;;;;;;;;;5017795;28;19971;-81
2022/04/17 09:42:13;;;;;;;;;;;;;;;;;;5044605;28;20385;-80
2022/04/17 09:44:46;;;;;;;;;;;;;;;;;;5012808;28;20229;-80
2022/04/17 09:47:14;;;;;;;;;;;;;;;;;;5043666;28;20423;-81
2022/04/17 09:49:40;;;;;;;;;;;;;;;;;;5045194;28;19953;-81
2022/04/17 09:52:07;;;;;;;;;;;;;;;;;;5015696;28;20061;-81
2022/04/17 09:54:33;;;;;;;;;;;;;;;;;;5036378;28;19948;-80
2022/04/17 09:56:59;;;;;;;;;;;;;;;;;;5021117;28;19978;-80
2022/04/17 09:59:25;;;;;;;;;;;;;;;;;;5022534;28;19956;-79
2022/04/17 10:01:52;;;;;;;;;;;;;;;;;;5028109;28;20512;-82
2022/04/17 10:04:21;;;;;;;;;;;;;;;;;;5041795;28;19957;-81
2022/04/17 10:06:48;;;;;;;;;;;;;;;;;;5023373;28;20477;-81
2022/04/17 10:09:14;;;;;;;;;;;;;;;;;;5053821;28;19925;-83
2022/04/17 10:11:40;;;;;;;;;;;;;;;;;;5035570;28;19931;-82
2022/04/17 10:14:06;;;;;;;;;;;;;;;;;;5021934;28;19929;-83
2022/04/17 10:16:33;;;;;;;;;;;;;;;;;;5020299;28;19953;-83
2022/04/17 10:18:59;;;;;;;;;;;;;;;;;;5014349;28;19961;-83
2022/04/17 10:21:25;;;;;;;;;;;;;;;;;;5020031;28;19973;-88
2022/04/17 10:23:51;;;;;;;;;;;;;;;;;;5027522;28;19956;-85
2022/04/17 10:26:17;;;;;;;;;;;;;;;;;;5037775;28;19960;-81
2022/04/17 10:28:44;;;;;;;;;;;;;;;;;;5044555;28;19974;-81
2022/04/17 10:31:10;;;;;;;;;;;;;;;;;;5038799;28;19917;-82
2022/04/17 10:33:36;;;;;;;;;;;;;;;;;;5011620;28;19960;-82
2022/04/17 10:36:02;;;;;;;;;;;;;;;;;;5043355;28;19979;-83
2022/04/17 10:38:28;;;;;;;;;;;;;;;;;;5045893;28;19967;-82
2022/04/17 10:40:54;;;;;;;;;;;;;;;;;;5061435;28;20399;-81
2022/04/17 10:43:21;;;;;;;;;;;;;;;;;;5045645;28;19967;-82
2022/04/17 10:45:47;;;;;;;;;;;;;;;;;;5028106;28;19959;-81
2022/04/17 10:48:13;;;;;;;;;;;;;;;;;;5043230;28;19967;-81
2022/04/17 10:50:40;;;;;;;;;;;;;;;;;;5037701;28;19971;-80
2022/04/17 10:53:06;;;;;;;;;;;;;;;;;;5041515;28;20357;-81
2022/04/17 10:55:34;;;;;;;;;;;;;;;;;;5045248;28;19963;-81
2022/04/17 10:58:00;;;;;;;;;;;;;;;;;;5036163;28;19972;-81
2022/04/17 11:00:27;;;;;;;;;;;;;;;;;;5040605;28;19952;-82
2022/04/17 11:02:53;;;;;;;;;;;;;;;;;;5057760;28;19965;-84
2022/04/17 11:05:19;;;;;;;;;;;;;;;;;;5036474;28;19949;-84
2022/04/17 11:07:46;;;;;;;;;;;;;;;;;;5057296;28;19964;-84
2022/04/17 11:10:12;;;;;;;;;;;;;;;;;;5056732;28;19945;-84
2022/04/17 11:12:38;;;;;;;;;;;;;;;;;;5035589;28;19964;-83
2022/04/17 11:15:04;;;;;;;;;;;;;;;;;;5045201;28;19917;-83
2022/04/17 11:17:31;;;;;;;;;;;;;;;;;;5050617;28;19962;-82
2022/04/17 11:19:57;;;;;;;;;;;;;;;;;;5064526;28;20333;-82
2022/04/17 11:22:23;;;;;;;;;;;;;;;;;;5039004;28;19979;-81
2022/04/17 11:24:49;;;;;;;;;;;;;;;;;;5044233;28;19960;-81
2022/04/17 11:27:15;;;;;;;;;;;;;;;;;;5042862;28;19956;-82
2022/04/17 11:29:43;;;;;;;;;;;;;;;;;;5041759;28;19956;-81
2022/04/17 11:32:09;;;;;;;;;;;;;;;;;;5058915;28;19956;-82
2022/04/17 11:34:35;;;;;;;;;;;;;;;;;;5038565;28;20454;-82
2022/04/17 11:37:01;;;;;;;;;;;;;;;;;;5041576;28;20213;-82
2022/04/17 11:39:27;;;;;;;;;;;;;;;;;;5036469;28;19963;-82
2022/04/17 11:41:53;;;;;;;;;;;;;;;;;;5027447;28;19968;-82
2022/04/17 11:44:20;;;;;;;;;;;;;;;;;;5059974;28;19959;-79
2022/04/17 11:46:46;;;;;;;;;;;;;;;;;;5042259;28;19952;-78
2022/04/17 11:49:12;;;;;;;;;;;;;;;;;;5039556;28;19990;-78
2022/04/17 11:51:38;;;;;;;;;;;;;;;;;;5056067;28;19949;-79
2022/04/17 11:54:04;;;;;;;;;;;;;;;;;;5042091;28;19962;-78
2022/04/17 11:56:31;;;;;;;;;;;;;;;;;;5051262;28;19961;-81
2022/04/17 11:58:57;;;;;;;;;;;;;;;;;;5045663;28;19920;-80
2022/04/17 12:01:23;;;;;;;;;;;;;;;;;;5046682;28;20280;-79
2022/04/17 12:03:50;;;;;;;;;;;;;;;;;;5037152;28;19964;-79
2022/04/17 12:06:17;;;;;;;;;;;;;;;;;;5041994;28;19990;-79
2022/04/17 12:08:44;;;;;;;;;;;;;;;;;;5045275;28;20275;-80
2022/04/17 12:11:10;;;;;;;;;;;;;;;;;;5049194;28;19948;-81
2022/04/17 12:13:36;;;;;;;;;;;;;;;;;;5044836;28;19975;-78
2022/04/17 12:16:02;;;;;;;;;;;;;;;;;;5045240;28;19994;-78
2022/04/17 12:18:29;;;;;;;;;;;;;;;;;;5039534;28;20314;-80
2022/04/17 12:20:55;;;;;;;;;;;;;;;;;;5056127;28;19967;-80
2022/04/17 12:23:21;;;;;;;;;;;;;;;;;;5042263;28;19960;-80
2022/04/17 12:25:48;;;;;;;;;;;;;;;;;;5033860;28;19959;-78
2022/04/17 12:28:14;;;;;;;;;;;;;;;;;;5040667;28;19963;-77
2022/04/17 12:30:40;;;;;;;;;;;;;;;;;;5037336;28;19963;-76
2022/04/17 12:33:06;;;;;;;;;;;;;;;;;;5044237;28;20014;-78
2022/04/17 12:35:33;;;;;;;;;;;;;;;;;;5036241;28;19947;-78
2022/04/17 12:37:59;;;;;;;;;;;;;;;;;;5045293;28;19948;-78
2022/04/17 12:40:25;;;;;;;;;;;;;;;;;;5042501;28;20079;-78
2022/04/17 12:42:51;;;;;;;;;;;;;;;;;;5051665;28;19945;-77
2022/04/17 12:45:18;;;;;;;;;;;;;;;;;;5037367;28;19944;-77
2022/04/17 12:47:44;;;;;;;;;;;;;;;;;;5042266;28;19964;-77
2022/04/17 12:50:13;;;;;;;;;;;;;;;;;;5052189;28;20329;-77
2022/04/17 12:52:39;;;;;;;;;;;;;;;;;;5036217;28;19962;-79
2022/04/17 12:55:05;;;;;;;;;;;;;;;;;;5047465;28;20148;-79
2022/04/17 12:57:31;;;;;;;;;;;;;;;;;;5034007;28;20014;-79
2022/04/17 12:59:58;;;;;;;;;;;;;;;;;;5056629;28;19949;-79
2022/04/17 13:02:24;;;;;;;;;;;;;;;;;;5052773;28;19963;-78
2022/04/17 13:04:50;;;;;;;;;;;;;;;;;;5062663;28;19975;-79
2022/04/17 13:07:16;;;;;;;;;;;;;;;;;;5048338;28;19937;-79
2022/04/17 13:09:43;;;;;;;;;;;;;;;;;;5054953;28;20009;-79
2022/04/17 13:12:10;;;;;;;;;;;;;;;;;;5040521;28;19968;-79
2022/04/17 13:14:36;;;;;;;;;;;;;;;;;;5052556;28;19963;-79
2022/04/17 13:17:02;;;;;;;;;;;;;;;;;;5045030;28;19975;-79
2022/04/17 13:19:29;;;;;;;;;;;;;;;;;;5027004;28;19947;-79
2022/04/17 13:21:55;;;;;;;;;;;;;;;;;;5034961;28;19960;-81
2022/04/17 13:24:21;;;;;;;;;;;;;;;;;;5038459;28;19925;-79
2022/04/17 13:26:47;;;;;;;;;;;;;;;;;;5054736;28;20376;-79
2022/04/17 13:29:15;;;;;;;;;;;;;;;;;;5039868;28;20209;-80
2022/04/17 13:31:42;;;;;;;;;;;;;;;;;;5037337;28;19967;-79
2022/04/17 13:34:08;;;;;;;;;;;;;;;;;;5050244;28;19961;-80
2022/04/17 13:36:34;;;;;;;;;;;;;;;;;;5065098;28;19948;-82
2022/04/17 13:39:00;;;;;;;;;;;;;;;;;;5056992;28;19956;-81
2022/04/17 13:41:26;;;;;;;;;;;;;;;;;;5047487;28;19954;-81
2022/04/17 13:43:53;;;;;;;;;;;;;;;;;;5050254;28;19951;-81
2022/04/17 13:46:20;;;;;;;;;;;;;;;;;;5053321;28;19956;-81
2022/04/17 13:48:46;;;;;;;;;;;;;;;;;;5053009;28;19967;-81
2022/04/17 13:51:12;;;;;;;;;;;;;;;;;;5052275;28;19990;-81
2022/04/17 13:53:39;;;;;;;;;;;;;;;;;;5047968;28;20027;-81
2022/04/17 13:56:05;;;;;;;;;;;;;;;;;;5048033;28;20485;-81
2022/04/17 13:58:31;;;;;;;;;;;;;;;;;;5050772;28;19955;-81
2022/04/17 14:00:57;;;;;;;;;;;;;;;;;;5038499;28;19970;-81
2022/04/17 14:03:24;;;;;;;;;;;;;;;;;;5052098;28;19968;-82
2022/04/17 14:05:50;;;;;;;;;;;;;;;;;;5037894;28;19966;-81
2022/04/17 14:08:16;;;;;;;;;;;;;;;;;;5039353;28;19941;-80
2022/04/17 14:10:42;;;;;;;;;;;;;;;;;;5052870;28;19917;-81
2022/04/17 14:13:08;;;;;;;;;;;;;;;;;;5040028;28;19956;-82
2022/04/17 14:15:35;;;;;;;;;;;;;;;;;;5069648;28;19987;-82
2022/04/17 14:18:01;;;;;;;;;;;;;;;;;;5048554;28;19956;-81
2022/04/17 14:20:28;;;;;;;;;;;;;;;;;;5046529;28;19952;-82
2022/04/17 14:22:55;;;;;;;;;;;;;;;;;;5050106;28;19945;-81
2022/04/17 14:25:21;;;;;;;;;;;;;;;;;;5050990;28;19975;-81
2022/04/17 14:27:47;;;;;;;;;;;;;;;;;;5055530;28;19952;-80
2022/04/17 14:30:13;;;;;;;;;;;;;;;;;;5060236;28;19936;-81
2022/04/17 14:32:39;;;;;;;;;;;;;;;;;;5037334;28;20333;-81
2022/04/17 14:35:06;;;;;;;;;;;;;;;;;;5031309;28;19960;-80
2022/04/17 14:37:32;;;;;;;;;;;;;;;;;;5052847;28;20157;-81
2022/04/17 14:39:58;;;;;;;;;;;;;;;;;;5051281;28;19955;-81
2022/04/17 14:42:24;;;;;;;;;;;;;;;;;;5050472;28;19971;-81
2022/04/17 14:44:50;;;;;;;;;;;;;;;;;;5054648;28;19957;-81
2022/04/17 14:47:16;;;;;;;;;;;;;;;;;;5065071;28;20325;-81
2022/04/17 14:49:43;;;;;;;;;;;;;;;;;;5044814;28;19953;-81
2022/04/17 14:52:09;;;;;;;;;;;;;;;;;;5052617;28;20009;-80
2022/04/17 14:54:35;;;;;;;;;;;;;;;;;;5033669;28;19964;-81
2022/04/17 14:57:01;;;;;;;;;;;;;;;;;;5067577;28;19944;-81
2022/04/17 14:59:28;;;;;;;;;;;;;;;;;;5052918;28;19960;-81
2022/04/17 15:01:56;;;;;;;;;;;;;;;;;;5055355;28;20031;-82
2022/04/17 15:04:22;;;;;;;;;;;;;;;;;;5040421;28;20326;-81
2022/04/17 15:06:48;;;;;;;;;;;;;;;;;;5039002;28;20042;-81
2022/04/17 15:09:15;;;;;;;;;;;;;;;;;;5057701;28;19955;-81
2022/04/17 15:11:41;;;;;;;;;;;;;;;;;;5043811;28;20313;-81
2022/04/17 15:14:07;;;;;;;;;;;;;;;;;;5052271;28;19956;-82
2022/04/17 15:16:33;;;;;;;;;;;;;;;;;;5067701;28;20013;-81
2022/04/17 15:19:00;;;;;;;;;;;;;;;;;;5047322;28;19951;-81
2022/04/17 15:21:26;;;;;;;;;;;;;;;;;;5052540;28;19967;-81
2022/04/17 15:23:52;;;;;;;;;;;;;;;;;;5053604;28;19960;-81
2022/04/17 15:26:18;;;;;;;;;;;;;;;;;;5034292;28;19916;-82
2022/04/17 15:28:46;;;;;;;;;;;;;;;;;;5063410;28;19951;-81
2022/04/17 15:31:12;;;;;;;;;;;;;;;;;;5053708;28;19974;-81
2022/04/17 15:33:40;;;;;;;;;;;;;;;;;;5028826;28;20391;-81
2022/04/17 15:36:06;;;;;;;;;;;;;;;;;;5036877;28;20513;-81
2022/04/17 15:38:32;;;;;;;;;;;;;;;;;;5045317;28;20652;-82
2022/04/17 15:41:00;;;;;;;;;;;;;;;;;;5044180;28;19943;-82
2022/04/17 15:48:56;;;;;;;;;;;;;;;;;;5041174;28;19947;-81
2022/04/17 15:51:22;;;;;;;;;;;;;;;;;;5060380;28;19974;-81
2022/04/17 15:53:49;;;;;;;;;;;;;;;;;;5051264;28;20009;-83
2022/04/17 15:56:15;;;;;;;;;;;;;;;;;;5054782;28;19967;-81
2022/04/17 15:58:45;;;;;;;;;;;;;;;;;;5059035;28;19949;-81
2022/04/17 16:01:11;;;;;;;;;;;;;;;;;;5044949;28;20395;-81
2022/04/17 16:03:38;;;;;;;;;;;;;;;;;;5048604;28;19913;-81
2022/04/17 16:06:04;;;;;;;;;;;;;;;;;;5060521;28;20440;-82
2022/04/17 16:08:31;;;;;;;;;;;;;;;;;;5032149;28;19960;-82
2022/04/17 16:10:57;;;;;;;;;;;;;;;;;;5033441;28;20372;-81
2022/04/17 16:13:23;;;;;;;;;;;;;;;;;;5053914;28;20341;-82
2022/04/17 16:15:49;;;;;;;;;;;;;;;;;;5037334;28;19945;-82
2022/04/17 16:18:15;;;;;;;;;;;;;;;;;;5068740;28;19949;-81
2022/04/17 16:20:42;;;;;;;;;;;;;;;;;;5034104;28;19924;-80
2022/04/17 16:23:08;;;;;;;;;;;;;;;;;;5050602;28;19920;-78
2022/04/17 16:25:34;;;;;;;;;;;;;;;;;;5056441;28;20296;-81
2022/04/17 16:28:00;;;;;;;;;;;;;;;;;;5043432;28;19963;-81
2022/04/17 16:30:30;;;;;;;;;;;;;;;;;;5061735;28;19948;-81
2022/04/17 16:32:56;;;;;;;;;;;;;;;;;;5031114;28;19971;-81
2022/04/17 16:35:22;;;;;;;;;;;;;;;;;;5047272;28;19951;-81
2022/04/17 16:37:49;;;;;;;;;;;;;;;;;;5052398;28;20353;-81
2022/04/17 16:40:15;;;;;;;;;;;;;;;;;;5046575;28;19964;-81
2022/04/17 16:42:41;;;;;;;;;;;;;;;;;;5060856;28;19948;-80
2022/04/17 16:45:07;;;;;;;;;;;;;;;;;;5043265;28;19959;-81
2022/04/17 16:47:34;;;;;;;;;;;;;;;;;;5046067;28;19944;-81
2022/04/17 16:50:01;;;;;;;;;;;;;;;;;;5046304;28;19956;-81
2022/04/17 16:52:27;;;;;;;;;;;;;;;;;;5054422;28;19952;-81
2022/04/17 16:54:53;;;;;;;;;;;;;;;;;;5048711;28;19966;-80
2022/04/17 17:00:04;;;;;;;;;;;;;;;;;;5047555;28;19917;-81
2022/04/17 17:02:30;;;;;;;;;;;;;;;;;;5051838;28;19913;-81